McKinney, Arkansas
Current Conditions -  °F | °C
As of 4:53 PM on Friday 28 Nov 2014 (Local Time) from KLLQ Reporting Station
Clear Clear  
Wind Chill: 55°   Ceiling: Unl
Heat Index: 55°   Visibility: 10mi
Dew Point: 36°   Wind: 8mph
Humidity: 49%   Direction: 170°S
Pressure: 30.16"   Gusts: NA
Location:  33.6176°N, 92.1466°W
Report Text: KLLQ 282253Z AUTO 17007KT 10SM CLR 13/02 A3016 RMK AO2 SLP213 T01280022
Loading
Personal Weather Stations






























Interactive Weather Map New forecast layout! Learn more

10-Day Weather Forecast

Advertisements
Track Severe Weather on mobile